sensor_id;sensor_type;location;lat;lon;timestamp;P1;durP1;ratioP1;P2;durP2;ratioP2
53273;SDS011;39163;52.696;6.758;2024-03-23T00:53:21;41.40;;;7.05;;
53273;SDS011;39163;52.696;6.758;2024-03-23T00:55:48;36.13;;;6.18;;
53273;SDS011;39163;52.696;6.758;2024-03-23T00:58:14;29.88;;;6.18;;
53273;SDS011;39163;52.696;6.758;2024-03-23T01:00:41;38.40;;;6.50;;
53273;SDS011;39163;52.696;6.758;2024-03-23T01:03:07;37.72;;;6.43;;
53273;SDS011;39163;52.696;6.758;2024-03-23T01:05:34;27.83;;;6.90;;
53273;SDS011;39163;52.696;6.758;2024-03-23T01:07:59;34.45;;;5.68;;
53273;SDS011;39163;52.696;6.758;2024-03-23T01:10:28;37.42;;;6.43;;
53273;SDS011;39163;52.696;6.758;2024-03-23T01:12:54;28.73;;;6.15;;
53273;SDS011;39163;52.696;6.758;2024-03-23T01:15:21;31.25;;;6.78;;
53273;SDS011;39163;52.696;6.758;2024-03-23T01:17:47;45.25;;;7.15;;
53273;SDS011;39163;52.696;6.758;2024-03-23T01:20:14;31.52;;;6.25;;
53273;SDS011;39163;52.696;6.758;2024-03-23T01:22:40;39.92;;;7.43;;
53273;SDS011;39163;52.696;6.758;2024-03-23T01:25:07;30.80;;;6.43;;
53273;SDS011;39163;52.696;6.758;2024-03-23T01:27:34;36.00;;;6.93;;
53273;SDS011;39163;52.696;6.758;2024-03-23T01:30:01;30.95;;;8.10;;
53273;SDS011;39163;52.696;6.758;2024-03-23T01:32:27;36.63;;;7.95;;
53273;SDS011;39163;52.696;6.758;2024-03-23T01:34:54;28.20;;;6.90;;
53273;SDS011;39163;52.696;6.758;2024-03-23T01:37:20;32.25;;;6.68;;
53273;SDS011;39163;52.696;6.758;2024-03-23T01:39:47;30.55;;;6.55;;
53273;SDS011;39163;52.696;6.758;2024-03-23T01:42:13;30.40;;;7.15;;
53273;SDS011;39163;52.696;6.758;2024-03-23T01:44:41;34.42;;;8.40;;
53273;SDS011;39163;52.696;6.758;2024-03-23T01:47:07;36.38;;;7.82;;
53273;SDS011;39163;52.696;6.758;2024-03-23T01:49:34;30.67;;;6.70;;
53273;SDS011;39163;52.696;6.758;2024-03-23T01:52:00;34.25;;;6.97;;
53273;SDS011;39163;52.696;6.758;2024-03-23T01:54:28;43.13;;;9.05;;
53273;SDS011;39163;52.696;6.758;2024-03-23T01:56:55;30.65;;;6.85;;
53273;SDS011;39163;52.696;6.758;2024-03-23T01:59:22;33.67;;;6.88;;
53273;SDS011;39163;52.696;6.758;2024-03-23T02:01:50;41.65;;;8.23;;
53273;SDS011;39163;52.696;6.758;2024-03-23T02:04:17;41.38;;;7.15;;
53273;SDS011;39163;52.696;6.758;2024-03-23T02:06:43;32.83;;;5.93;;
53273;SDS011;39163;52.696;6.758;2024-03-23T02:09:10;34.10;;;7.53;;
53273;SDS011;39163;52.696;6.758;2024-03-23T02:11:36;36.65;;;7.57;;
53273;SDS011;39163;52.696;6.758;2024-03-23T02:14:03;35.20;;;8.02;;
53273;SDS011;39163;52.696;6.758;2024-03-23T02:16:29;21.98;;;5.53;;
53273;SDS011;39163;52.696;6.758;2024-03-23T02:18:57;39.58;;;7.25;;
53273;SDS011;39163;52.696;6.758;2024-03-23T02:21:23;25.65;;;5.70;;
53273;SDS011;39163;52.696;6.758;2024-03-23T02:23:52;30.42;;;6.13;;
53273;SDS011;39163;52.696;6.758;2024-03-23T02:26:18;38.42;;;6.10;;
53273;SDS011;39163;52.696;6.758;2024-03-23T02:28:45;30.17;;;6.55;;
53273;SDS011;39163;52.696;6.758;2024-03-23T02:31:11;27.33;;;5.88;;
53273;SDS011;39163;52.696;6.758;2024-03-23T02:33:40;26.90;;;6.28;;
53273;SDS011;39163;52.696;6.758;2024-03-23T02:36:07;37.30;;;6.82;;
53273;SDS011;39163;52.696;6.758;2024-03-23T02:38:34;26.83;;;5.38;;
53273;SDS011;39163;52.696;6.758;2024-03-23T02:41:03;24.80;;;5.03;;
53273;SDS011;39163;52.696;6.758;2024-03-23T02:43:30;27.15;;;5.82;;
53273;SDS011;39163;52.696;6.758;2024-03-23T02:45:56;36.92;;;6.93;;
53273;SDS011;39163;52.696;6.758;2024-03-23T02:48:23;30.63;;;5.93;;
53273;SDS011;39163;52.696;6.758;2024-03-23T02:50:49;31.65;;;5.80;;
53273;SDS011;39163;52.696;6.758;2024-03-23T02:53:16;36.03;;;7.15;;
53273;SDS011;39163;52.696;6.758;2024-03-23T02:55:43;21.80;;;5.57;;
53273;SDS011;39163;52.696;6.758;2024-03-23T02:58:11;35.88;;;5.32;;
53273;SDS011;39163;52.696;6.758;2024-03-23T03:00:37;30.40;;;5.60;;
53273;SDS011;39163;52.696;6.758;2024-03-23T03:03:04;30.25;;;5.00;;
53273;SDS011;39163;52.696;6.758;2024-03-23T03:05:30;28.20;;;5.25;;
53273;SDS011;39163;52.696;6.758;2024-03-23T03:07:57;29.80;;;5.15;;
53273;SDS011;39163;52.696;6.758;2024-03-23T03:10:23;27.98;;;5.40;;
53273;SDS011;39163;52.696;6.758;2024-03-23T03:12:50;33.85;;;5.35;;
53273;SDS011;39163;52.696;6.758;2024-03-23T03:15:17;26.58;;;5.38;;
53273;SDS011;39163;52.696;6.758;2024-03-23T03:17:44;25.65;;;5.53;;
53273;SDS011;39163;52.696;6.758;2024-03-23T03:20:10;28.00;;;5.72;;
53273;SDS011;39163;52.696;6.758;2024-03-23T03:22:38;31.95;;;5.57;;
53273;SDS011;39163;52.696;6.758;2024-03-23T03:25:05;32.35;;;6.32;;
53273;SDS011;39163;52.696;6.758;2024-03-23T03:27:32;34.25;;;5.93;;
53273;SDS011;39163;52.696;6.758;2024-03-23T03:29:59;26.60;;;4.82;;
53273;SDS011;39163;52.696;6.758;2024-03-23T03:32:29;31.38;;;5.32;;
53273;SDS011;39163;52.696;6.758;2024-03-23T03:34:55;21.75;;;5.38;;
53273;SDS011;39163;52.696;6.758;2024-03-23T03:37:22;33.20;;;5.47;;
53273;SDS011;39163;52.696;6.758;2024-03-23T03:39:48;34.03;;;5.18;;
53273;SDS011;39163;52.696;6.758;2024-03-23T03:42:15;23.40;;;4.90;;
53273;SDS011;39163;52.696;6.758;2024-03-23T03:44:41;26.52;;;4.90;;
53273;SDS011;39163;52.696;6.758;2024-03-23T03:47:07;26.23;;;4.88;;
53273;SDS011;39163;52.696;6.758;2024-03-23T03:49:35;25.40;;;6.25;;
53273;SDS011;39163;52.696;6.758;2024-03-23T03:52:02;32.17;;;5.28;;
53273;SDS011;39163;52.696;6.758;2024-03-23T03:54:28;28.27;;;5.05;;
53273;SDS011;39163;52.696;6.758;2024-03-23T03:56:55;27.50;;;4.68;;
53273;SDS011;39163;52.696;6.758;2024-03-23T03:59:20;25.63;;;4.93;;
53273;SDS011;39163;52.696;6.758;2024-03-23T04:01:47;30.45;;;6.93;;
53273;SDS011;39163;52.696;6.758;2024-03-23T04:04:13;32.83;;;5.55;;
53273;SDS011;39163;52.696;6.758;2024-03-23T04:06:42;30.30;;;5.35;;
53273;SDS011;39163;52.696;6.758;2024-03-23T04:09:09;33.40;;;7.25;;
53273;SDS011;39163;52.696;6.758;2024-03-23T04:11:36;31.77;;;4.95;;
53273;SDS011;39163;52.696;6.758;2024-03-23T04:14:02;32.65;;;5.13;;
53273;SDS011;39163;52.696;6.758;2024-03-23T04:16:29;24.63;;;5.30;;
53273;SDS011;39163;52.696;6.758;2024-03-23T04:18:57;27.73;;;4.93;;
53273;SDS011;39163;52.696;6.758;2024-03-23T04:21:24;24.05;;;4.95;;
53273;SDS011;39163;52.696;6.758;2024-03-23T04:23:51;32.47;;;6.28;;
53273;SDS011;39163;52.696;6.758;2024-03-23T04:26:18;34.97;;;6.10;;
53273;SDS011;39163;52.696;6.758;2024-03-23T04:28:44;34.42;;;5.28;;
53273;SDS011;39163;52.696;6.758;2024-03-23T04:31:11;28.17;;;5.47;;
53273;SDS011;39163;52.696;6.758;2024-03-23T04:33:37;38.80;;;7.68;;
53273;SDS011;39163;52.696;6.758;2024-03-23T04:36:05;37.75;;;7.00;;
53273;SDS011;39163;52.696;6.758;2024-03-23T04:38:32;27.05;;;5.65;;
53273;SDS011;39163;52.696;6.758;2024-03-23T04:41:00;34.85;;;5.65;;
53273;SDS011;39163;52.696;6.758;2024-03-23T04:43:28;30.30;;;6.68;;
53273;SDS011;39163;52.696;6.758;2024-03-23T04:45:55;26.98;;;6.70;;
53273;SDS011;39163;52.696;6.758;2024-03-23T04:48:22;32.03;;;5.53;;
53273;SDS011;39163;52.696;6.758;2024-03-23T04:50:49;28.38;;;5.97;;
53273;SDS011;39163;52.696;6.758;2024-03-23T04:53:20;33.55;;;7.95;;
53273;SDS011;39163;52.696;6.758;2024-03-23T04:55:48;28.48;;;5.85;;
53273;SDS011;39163;52.696;6.758;2024-03-23T04:58:16;25.70;;;6.00;;
53273;SDS011;39163;52.696;6.758;2024-03-23T05:00:42;31.45;;;6.60;;
53273;SDS011;39163;52.696;6.758;2024-03-23T05:03:09;30.15;;;6.63;;
53273;SDS011;39163;52.696;6.758;2024-03-23T05:05:35;28.90;;;6.03;;
53273;SDS011;39163;52.696;6.758;2024-03-23T05:08:02;34.90;;;6.15;;
53273;SDS011;39163;52.696;6.758;2024-03-23T05:10:28;32.13;;;7.55;;
53273;SDS011;39163;52.696;6.758;2024-03-23T05:12:55;36.78;;;6.53;;
53273;SDS011;39163;52.696;6.758;2024-03-23T05:15:22;43.33;;;7.65;;
53273;SDS011;39163;52.696;6.758;2024-03-23T05:17:49;34.70;;;7.82;;
53273;SDS011;39163;52.696;6.758;2024-03-23T05:20:16;25.48;;;5.55;;
53273;SDS011;39163;52.696;6.758;2024-03-23T05:22:44;26.23;;;6.22;;
53273;SDS011;39163;52.696;6.758;2024-03-23T05:25:11;28.70;;;5.47;;
53273;SDS011;39163;52.696;6.758;2024-03-23T05:27:37;33.65;;;5.80;;
53273;SDS011;39163;52.696;6.758;2024-03-23T05:30:05;26.90;;;6.30;;
53273;SDS011;39163;52.696;6.758;2024-03-23T05:32:33;36.40;;;6.35;;
53273;SDS011;39163;52.696;6.758;2024-03-23T05:35:00;24.42;;;5.50;;
53273;SDS011;39163;52.696;6.758;2024-03-23T05:37:26;23.60;;;5.03;;
53273;SDS011;39163;52.696;6.758;2024-03-23T05:39:53;26.80;;;5.80;;
53273;SDS011;39163;52.696;6.758;2024-03-23T05:42:19;21.13;;;5.13;;
53273;SDS011;39163;52.696;6.758;2024-03-23T05:44:46;28.42;;;6.43;;
53273;SDS011;39163;52.696;6.758;2024-03-23T05:47:12;31.17;;;5.47;;
53273;SDS011;39163;52.696;6.758;2024-03-23T05:49:42;32.90;;;5.50;;
53273;SDS011;39163;52.696;6.758;2024-03-23T05:52:08;30.33;;;5.38;;
53273;SDS011;39163;52.696;6.758;2024-03-23T05:54:35;27.83;;;4.85;;
53273;SDS011;39163;52.696;6.758;2024-03-23T05:57:02;25.73;;;5.18;;
53273;SDS011;39163;52.696;6.758;2024-03-23T05:59:29;25.85;;;6.82;;
53273;SDS011;39163;52.696;6.758;2024-03-23T06:01:55;22.08;;;5.18;;
53273;SDS011;39163;52.696;6.758;2024-03-23T06:04:21;30.75;;;5.43;;
53273;SDS011;39163;52.696;6.758;2024-03-23T06:06:49;25.98;;;5.68;;
53273;SDS011;39163;52.696;6.758;2024-03-23T06:09:17;22.92;;;5.32;;
53273;SDS011;39163;52.696;6.758;2024-03-23T06:11:44;32.92;;;5.80;;
53273;SDS011;39163;52.696;6.758;2024-03-23T06:14:11;28.58;;;7.03;;
53273;SDS011;39163;52.696;6.758;2024-03-23T06:16:37;29.80;;;5.53;;
53273;SDS011;39163;52.696;6.758;2024-03-23T06:19:04;22.67;;;5.00;;
53273;SDS011;39163;52.696;6.758;2024-03-23T06:21:32;22.88;;;4.85;;
53273;SDS011;39163;52.696;6.758;2024-03-23T06:24:00;31.08;;;6.63;;
53273;SDS011;39163;52.696;6.758;2024-03-23T06:26:26;31.40;;;5.68;;
53273;SDS011;39163;52.696;6.758;2024-03-23T06:28:53;25.50;;;5.50;;
53273;SDS011;39163;52.696;6.758;2024-03-23T06:31:19;25.92;;;5.85;;
53273;SDS011;39163;52.696;6.758;2024-03-23T06:33:46;29.60;;;8.00;;
53273;SDS011;39163;52.696;6.758;2024-03-23T06:36:12;21.02;;;4.80;;
53273;SDS011;39163;52.696;6.758;2024-03-23T06:38:39;23.80;;;5.00;;
53273;SDS011;39163;52.696;6.758;2024-03-23T06:41:06;18.98;;;4.63;;
53273;SDS011;39163;52.696;6.758;2024-03-23T06:43:34;24.42;;;4.68;;
53273;SDS011;39163;52.696;6.758;2024-03-23T06:46:00;23.55;;;4.10;;
53273;SDS011;39163;52.696;6.758;2024-03-23T06:48:28;15.10;;;3.30;;
53273;SDS011;39163;52.696;6.758;2024-03-23T06:50:55;17.77;;;2.00;;
53273;SDS011;39163;52.696;6.758;2024-03-23T06:53:22;15.65;;;2.15;;
53273;SDS011;39163;52.696;6.758;2024-03-23T06:55:49;14.20;;;2.63;;
53273;SDS011;39163;52.696;6.758;2024-03-23T06:58:19;10.48;;;1.48;;
53273;SDS011;39163;52.696;6.758;2024-03-23T07:00:46;11.05;;;2.90;;
53273;SDS011;39163;52.696;6.758;2024-03-23T07:03:13;18.80;;;2.53;;
53273;SDS011;39163;52.696;6.758;2024-03-23T07:05:39;23.52;;;3.75;;
53273;SDS011;39163;52.696;6.758;2024-03-23T07:08:06;23.27;;;3.53;;
53273;SDS011;39163;52.696;6.758;2024-03-23T07:10:32;15.20;;;2.60;;
53273;SDS011;39163;52.696;6.758;2024-03-23T07:12:58;32.00;;;4.55;;
53273;SDS011;39163;52.696;6.758;2024-03-23T07:15:26;17.70;;;3.45;;
53273;SDS011;39163;52.696;6.758;2024-03-23T07:17:53;17.25;;;3.50;;
53273;SDS011;39163;52.696;6.758;2024-03-23T07:20:19;25.63;;;3.78;;
53273;SDS011;39163;52.696;6.758;2024-03-23T07:22:46;20.90;;;4.38;;
53273;SDS011;39163;52.696;6.758;2024-03-23T07:25:12;18.17;;;4.40;;
53273;SDS011;39163;52.696;6.758;2024-03-23T07:27:39;19.63;;;5.07;;
53273;SDS011;39163;52.696;6.758;2024-03-23T07:30:06;23.35;;;5.13;;
53273;SDS011;39163;52.696;6.758;2024-03-23T07:32:35;25.05;;;5.28;;
53273;SDS011;39163;52.696;6.758;2024-03-23T07:35:01;15.05;;;3.95;;
53273;SDS011;39163;52.696;6.758;2024-03-23T07:37:29;18.58;;;5.18;;
53273;SDS011;39163;52.696;6.758;2024-03-23T07:39:55;20.63;;;4.35;;
53273;SDS011;39163;52.696;6.758;2024-03-23T07:42:22;11.55;;;3.08;;
53273;SDS011;39163;52.696;6.758;2024-03-23T07:44:48;12.90;;;3.00;;
53273;SDS011;39163;52.696;6.758;2024-03-23T07:47:15;15.48;;;4.15;;
53273;SDS011;39163;52.696;6.758;2024-03-23T07:49:43;14.82;;;3.08;;
53273;SDS011;39163;52.696;6.758;2024-03-23T07:52:09;17.85;;;2.65;;
53273;SDS011;39163;52.696;6.758;2024-03-23T07:54:35;14.27;;;2.90;;
53273;SDS011;39163;52.696;6.758;2024-03-23T07:57:02;19.30;;;3.20;;
53273;SDS011;39163;52.696;6.758;2024-03-23T07:59:29;18.38;;;2.85;;
53273;SDS011;39163;52.696;6.758;2024-03-23T08:01:57;19.58;;;2.40;;
53273;SDS011;39163;52.696;6.758;2024-03-23T08:04:23;11.18;;;1.48;;
53273;SDS011;39163;52.696;6.758;2024-03-23T08:06:51;10.45;;;1.08;;
53273;SDS011;39163;52.696;6.758;2024-03-23T08:09:17;10.60;;;1.80;;
53273;SDS011;39163;52.696;6.758;2024-03-23T08:11:44;6.97;;;1.10;;
53273;SDS011;39163;52.696;6.758;2024-03-23T08:14:11;11.00;;;1.20;;
53273;SDS011;39163;52.696;6.758;2024-03-23T08:16:38;9.10;;;1.10;;
53273;SDS011;39163;52.696;6.758;2024-03-23T08:19:05;8.80;;;1.17;;
53273;SDS011;39163;52.696;6.758;2024-03-23T08:21:33;6.82;;;1.75;;
53273;SDS011;39163;52.696;6.758;2024-03-23T08:24:01;7.22;;;1.17;;
53273;SDS011;39163;52.696;6.758;2024-03-23T08:26:28;9.32;;;1.30;;
53273;SDS011;39163;52.696;6.758;2024-03-23T08:28:54;5.13;;;1.33;;
53273;SDS011;39163;52.696;6.758;2024-03-23T08:31:21;6.50;;;1.00;;
53273;SDS011;39163;52.696;6.758;2024-03-23T08:33:47;7.35;;;1.77;;
53273;SDS011;39163;52.696;6.758;2024-03-23T08:36:14;5.22;;;0.98;;
53273;SDS011;39163;52.696;6.758;2024-03-23T08:38:40;6.60;;;0.70;;
53273;SDS011;39163;52.696;6.758;2024-03-23T08:41:09;4.60;;;0.47;;
53273;SDS011;39163;52.696;6.758;2024-03-23T08:43:36;5.95;;;0.50;;
53273;SDS011;39163;52.696;6.758;2024-03-23T08:46:04;3.80;;;0.43;;
53273;SDS011;39163;52.696;6.758;2024-03-23T08:48:31;6.22;;;0.52;;
53273;SDS011;39163;52.696;6.758;2024-03-23T08:50:59;5.00;;;0.80;;
53273;SDS011;39163;52.696;6.758;2024-03-23T08:53:27;5.47;;;0.47;;
53273;SDS011;39163;52.696;6.758;2024-03-23T08:55:54;12.30;;;2.20;;
53273;SDS011;39163;52.696;6.758;2024-03-23T08:58:21;4.78;;;0.40;;
53273;SDS011;39163;52.696;6.758;2024-03-23T09:00:49;3.63;;;0.68;;
53273;SDS011;39163;52.696;6.758;2024-03-23T09:03:15;3.03;;;0.50;;
53273;SDS011;39163;52.696;6.758;2024-03-23T09:05:42;7.13;;;0.40;;
53273;SDS011;39163;52.696;6.758;2024-03-23T09:08:08;5.20;;;0.32;;
53273;SDS011;39163;52.696;6.758;2024-03-23T09:10:37;5.22;;;0.50;;
53273;SDS011;39163;52.696;6.758;2024-03-23T09:13:04;8.23;;;0.63;;
53273;SDS011;39163;52.696;6.758;2024-03-23T09:15:33;2.97;;;0.45;;
53273;SDS011;39163;52.696;6.758;2024-03-23T09:18:00;10.10;;;0.60;;
53273;SDS011;39163;52.696;6.758;2024-03-23T09:20:27;4.30;;;0.75;;
53273;SDS011;39163;52.696;6.758;2024-03-23T09:22:53;4.38;;;0.40;;
53273;SDS011;39163;52.696;6.758;2024-03-23T09:25:20;3.08;;;0.30;;
53273;SDS011;39163;52.696;6.758;2024-03-23T09:27:46;6.93;;;0.40;;
53273;SDS011;39163;52.696;6.758;2024-03-23T09:30:13;5.75;;;0.40;;
53273;SDS011;39163;52.696;6.758;2024-03-23T09:32:42;4.60;;;0.40;;
53273;SDS011;39163;52.696;6.758;2024-03-23T09:35:10;3.90;;;0.40;;
53273;SDS011;39163;52.696;6.758;2024-03-23T09:37:36;4.05;;;0.30;;
53273;SDS011;39163;52.696;6.758;2024-03-23T09:40:05;5.55;;;0.30;;
53273;SDS011;39163;52.696;6.758;2024-03-23T09:42:34;6.38;;;0.22;;
53273;SDS011;39163;52.696;6.758;2024-03-23T09:45:01;3.80;;;0.32;;
53273;SDS011;39163;52.696;6.758;2024-03-23T09:47:27;8.70;;;2.00;;
53273;SDS011;39163;52.696;6.758;2024-03-23T09:49:57;5.10;;;0.40;;
53273;SDS011;39163;52.696;6.758;2024-03-23T09:52:23;5.93;;;0.80;;
53273;SDS011;39163;52.696;6.758;2024-03-23T09:54:50;3.78;;;0.40;;
53273;SDS011;39163;52.696;6.758;2024-03-23T09:57:16;4.50;;;0.50;;
53273;SDS011;39163;52.696;6.758;2024-03-23T09:59:43;9.35;;;1.95;;
53273;SDS011;39163;52.696;6.758;2024-03-23T10:02:09;4.97;;;0.40;;
53273;SDS011;39163;52.696;6.758;2024-03-23T10:04:42;9.15;;;1.73;;
53273;SDS011;39163;52.696;6.758;2024-03-23T10:07:13;9.15;;;0.82;;
53273;SDS011;39163;52.696;6.758;2024-03-23T10:09:42;5.35;;;0.60;;
53273;SDS011;39163;52.696;6.758;2024-03-23T10:12:08;4.45;;;0.82;;
53273;SDS011;39163;52.696;6.758;2024-03-23T10:14:37;6.97;;;0.77;;
53273;SDS011;39163;52.696;6.758;2024-03-23T10:17:13;12.70;;;0.90;;
53273;SDS011;39163;52.696;6.758;2024-03-23T10:19:42;10.35;;;0.60;;
53273;SDS011;39163;52.696;6.758;2024-03-23T10:22:09;8.73;;;0.77;;
53273;SDS011;39163;52.696;6.758;2024-03-23T10:24:42;7.93;;;1.23;;
53273;SDS011;39163;52.696;6.758;2024-03-23T10:27:08;8.80;;;0.80;;
53273;SDS011;39163;52.696;6.758;2024-03-23T10:29:35;8.85;;;1.25;;
53273;SDS011;39163;52.696;6.758;2024-03-23T10:32:07;13.32;;;0.93;;
53273;SDS011;39163;52.696;6.758;2024-03-23T10:34:35;5.90;;;0.40;;
53273;SDS011;39163;52.696;6.758;2024-03-23T10:37:02;7.82;;;0.90;;
53273;SDS011;39163;52.696;6.758;2024-03-23T10:39:33;6.88;;;0.70;;
53273;SDS011;39163;52.696;6.758;2024-03-23T10:42:03;7.22;;;0.63;;
53273;SDS011;39163;52.696;6.758;2024-03-23T10:44:31;4.05;;;0.47;;
53273;SDS011;39163;52.696;6.758;2024-03-23T10:46:57;11.18;;;0.65;;
53273;SDS011;39163;52.696;6.758;2024-03-23T10:49:26;6.13;;;1.45;;
53273;SDS011;39163;52.696;6.758;2024-03-23T10:51:54;5.75;;;0.90;;
53273;SDS011;39163;52.696;6.758;2024-03-23T10:54:23;5.88;;;0.30;;
53273;SDS011;39163;52.696;6.758;2024-03-23T10:56:50;7.57;;;1.05;;
53273;SDS011;39163;52.696;6.758;2024-03-23T10:59:23;6.47;;;0.63;;
53273;SDS011;39163;52.696;6.758;2024-03-23T11:01:55;8.52;;;0.85;;
53273;SDS011;39163;52.696;6.758;2024-03-23T11:04:29;8.95;;;0.50;;
53273;SDS011;39163;52.696;6.758;2024-03-23T11:06:56;5.45;;;0.68;;
53273;SDS011;39163;52.696;6.758;2024-03-23T11:09:39;4.93;;;0.60;;
53273;SDS011;39163;52.696;6.758;2024-03-23T11:12:17;7.13;;;0.70;;
53273;SDS011;39163;52.696;6.758;2024-03-23T11:14:53;7.78;;;0.70;;
53273;SDS011;39163;52.696;6.758;2024-03-23T11:17:20;3.38;;;0.77;;
53273;SDS011;39163;52.696;6.758;2024-03-23T11:19:52;6.60;;;0.45;;
53273;SDS011;39163;52.696;6.758;2024-03-23T11:25:12;9.23;;;0.85;;
53273;SDS011;39163;52.696;6.758;2024-03-23T11:27:41;8.32;;;0.70;;
53273;SDS011;39163;52.696;6.758;2024-03-23T11:30:11;6.88;;;0.63;;
53273;SDS011;39163;52.696;6.758;2024-03-23T11:32:38;5.43;;;0.60;;
53273;SDS011;39163;52.696;6.758;2024-03-23T11:35:06;3.92;;;0.38;;
53273;SDS011;39163;52.696;6.758;2024-03-23T11:37:35;4.68;;;0.63;;
53273;SDS011;39163;52.696;6.758;2024-03-23T11:40:16;7.65;;;1.27;;
53273;SDS011;39163;52.696;6.758;2024-03-23T11:42:43;7.40;;;0.80;;
53273;SDS011;39163;52.696;6.758;2024-03-23T11:45:12;4.43;;;0.80;;
53273;SDS011;39163;52.696;6.758;2024-03-23T11:47:39;8.25;;;0.60;;
53273;SDS011;39163;52.696;6.758;2024-03-23T11:50:06;7.90;;;0.82;;
53273;SDS011;39163;52.696;6.758;2024-03-23T11:52:32;5.53;;;0.95;;
53273;SDS011;39163;52.696;6.758;2024-03-23T11:55:03;4.50;;;0.52;;
53273;SDS011;39163;52.696;6.758;2024-03-23T11:57:29;6.20;;;0.50;;
53273;SDS011;39163;52.696;6.758;2024-03-23T11:59:57;12.35;;;0.82;;
53273;SDS011;39163;52.696;6.758;2024-03-23T12:02:24;6.38;;;0.80;;
53273;SDS011;39163;52.696;6.758;2024-03-23T12:04:51;7.10;;;1.83;;
53273;SDS011;39163;52.696;6.758;2024-03-23T12:07:18;5.55;;;0.65;;
53273;SDS011;39163;52.696;6.758;2024-03-23T12:09:46;5.15;;;0.73;;
53273;SDS011;39163;52.696;6.758;2024-03-23T12:12:27;7.28;;;0.60;;
53273;SDS011;39163;52.696;6.758;2024-03-23T12:15:00;11.23;;;0.60;;
53273;SDS011;39163;52.696;6.758;2024-03-23T12:17:29;7.32;;;0.70;;
53273;SDS011;39163;52.696;6.758;2024-03-23T12:19:55;11.10;;;1.40;;
53273;SDS011;39163;52.696;6.758;2024-03-23T12:22:21;4.07;;;0.70;;
53273;SDS011;39163;52.696;6.758;2024-03-23T12:24:49;4.75;;;0.38;;
53273;SDS011;39163;52.696;6.758;2024-03-23T12:27:15;3.63;;;0.50;;
53273;SDS011;39163;52.696;6.758;2024-03-23T12:29:42;4.15;;;1.15;;
53273;SDS011;39163;52.696;6.758;2024-03-23T12:32:11;4.00;;;0.52;;
53273;SDS011;39163;52.696;6.758;2024-03-23T12:34:40;8.25;;;0.60;;
53273;SDS011;39163;52.696;6.758;2024-03-23T12:37:06;5.35;;;0.57;;
53273;SDS011;39163;52.696;6.758;2024-03-23T12:39:33;9.75;;;0.95;;
53273;SDS011;39163;52.696;6.758;2024-03-23T12:42:00;5.63;;;0.85;;
53273;SDS011;39163;52.696;6.758;2024-03-23T12:44:27;4.47;;;0.35;;
53273;SDS011;39163;52.696;6.758;2024-03-23T12:46:53;3.83;;;0.43;;
53273;SDS011;39163;52.696;6.758;2024-03-23T12:49:20;7.70;;;0.47;;
53273;SDS011;39163;52.696;6.758;2024-03-23T12:51:53;5.20;;;0.40;;
53273;SDS011;39163;52.696;6.758;2024-03-23T12:54:21;4.53;;;0.30;;
53273;SDS011;39163;52.696;6.758;2024-03-23T12:56:47;4.25;;;0.38;;
53273;SDS011;39163;52.696;6.758;2024-03-23T12:59:14;11.32;;;1.60;;
53273;SDS011;39163;52.696;6.758;2024-03-23T13:01:40;5.05;;;0.30;;
53273;SDS011;39163;52.696;6.758;2024-03-23T13:04:07;4.32;;;0.22;;
53273;SDS011;39163;52.696;6.758;2024-03-23T13:06:33;2.33;;;0.22;;
53273;SDS011;39163;52.696;6.758;2024-03-23T13:09:01;3.70;;;0.57;;
53273;SDS011;39163;52.696;6.758;2024-03-23T13:11:28;4.60;;;0.20;;
53273;SDS011;39163;52.696;6.758;2024-03-23T13:13:55;3.35;;;0.20;;
53273;SDS011;39163;52.696;6.758;2024-03-23T13:16:21;2.20;;;0.30;;
53273;SDS011;39163;52.696;6.758;2024-03-23T13:18:48;5.00;;;0.28;;
53273;SDS011;39163;52.696;6.758;2024-03-23T13:21:14;6.63;;;0.40;;
53273;SDS011;39163;52.696;6.758;2024-03-23T13:23:42;9.55;;;1.58;;
53273;SDS011;39163;52.696;6.758;2024-03-23T13:26:12;8.43;;;1.30;;
53273;SDS011;39163;52.696;6.758;2024-03-23T13:28:39;9.85;;;0.85;;
53273;SDS011;39163;52.696;6.758;2024-03-23T13:31:05;7.90;;;0.50;;
53273;SDS011;39163;52.696;6.758;2024-03-23T13:33:33;6.18;;;0.38;;
53273;SDS011;39163;52.696;6.758;2024-03-23T13:36:00;5.85;;;0.55;;
53273;SDS011;39163;52.696;6.758;2024-03-23T13:38:27;5.50;;;0.75;;
53273;SDS011;39163;52.696;6.758;2024-03-23T13:40:54;8.68;;;1.05;;
53273;SDS011;39163;52.696;6.758;2024-03-23T13:43:22;3.92;;;0.30;;
53273;SDS011;39163;52.696;6.758;2024-03-23T13:45:53;10.15;;;1.02;;
53273;SDS011;39163;52.696;6.758;2024-03-23T13:48:20;6.18;;;1.25;;
53273;SDS011;39163;52.696;6.758;2024-03-23T13:50:56;9.25;;;0.50;;
53273;SDS011;39163;52.696;6.758;2024-03-23T13:53:22;11.43;;;1.27;;
53273;SDS011;39163;52.696;6.758;2024-03-23T13:55:50;7.57;;;0.70;;
53273;SDS011;39163;52.696;6.758;2024-03-23T13:58:15;10.75;;;1.25;;
53273;SDS011;39163;52.696;6.758;2024-03-23T14:00:44;11.77;;;1.13;;
53273;SDS011;39163;52.696;6.758;2024-03-23T14:03:10;5.40;;;0.75;;
53273;SDS011;39163;52.696;6.758;2024-03-23T14:05:37;10.52;;;1.13;;
53273;SDS011;39163;52.696;6.758;2024-03-23T14:08:04;9.18;;;0.65;;
53273;SDS011;39163;52.696;6.758;2024-03-23T14:10:31;7.07;;;0.60;;
53273;SDS011;39163;52.696;6.758;2024-03-23T14:12:57;7.93;;;0.75;;
53273;SDS011;39163;52.696;6.758;2024-03-23T14:15:25;8.25;;;0.73;;
53273;SDS011;39163;52.696;6.758;2024-03-23T14:17:53;6.97;;;0.70;;
53273;SDS011;39163;52.696;6.758;2024-03-23T14:20:20;6.25;;;0.50;;
53273;SDS011;39163;52.696;6.758;2024-03-23T14:22:46;5.13;;;0.50;;
53273;SDS011;39163;52.696;6.758;2024-03-23T14:25:13;8.05;;;0.80;;
53273;SDS011;39163;52.696;6.758;2024-03-23T14:27:39;4.75;;;0.45;;
53273;SDS011;39163;52.696;6.758;2024-03-23T14:30:07;8.60;;;0.95;;
53273;SDS011;39163;52.696;6.758;2024-03-23T14:32:33;3.63;;;0.73;;
53273;SDS011;39163;52.696;6.758;2024-03-23T14:35:04;4.55;;;0.50;;
53273;SDS011;39163;52.696;6.758;2024-03-23T14:37:32;4.00;;;0.40;;
53273;SDS011;39163;52.696;6.758;2024-03-23T14:40:00;5.03;;;0.55;;
53273;SDS011;39163;52.696;6.758;2024-03-23T14:42:27;6.78;;;0.55;;
53273;SDS011;39163;52.696;6.758;2024-03-23T14:44:55;5.25;;;0.50;;
53273;SDS011;39163;52.696;6.758;2024-03-23T14:47:21;7.07;;;0.82;;
53273;SDS011;39163;52.696;6.758;2024-03-23T14:49:48;3.97;;;0.30;;
53273;SDS011;39163;52.696;6.758;2024-03-23T14:52:16;4.10;;;0.77;;
53273;SDS011;39163;52.696;6.758;2024-03-23T14:54:44;9.40;;;0.77;;
53273;SDS011;39163;52.696;6.758;2024-03-23T14:57:10;8.75;;;1.58;;
53273;SDS011;39163;52.696;6.758;2024-03-23T14:59:38;4.47;;;0.70;;
53273;SDS011;39163;52.696;6.758;2024-03-23T15:02:05;7.90;;;0.93;;
53273;SDS011;39163;52.696;6.758;2024-03-23T15:04:32;9.23;;;0.57;;
53273;SDS011;39163;52.696;6.758;2024-03-23T15:06:58;7.60;;;0.85;;
53273;SDS011;39163;52.696;6.758;2024-03-23T15:09:27;5.85;;;0.70;;
53273;SDS011;39163;52.696;6.758;2024-03-23T15:11:53;8.93;;;0.65;;
53273;SDS011;39163;52.696;6.758;2024-03-23T15:14:21;4.55;;;0.80;;
53273;SDS011;39163;52.696;6.758;2024-03-23T15:16:46;6.80;;;0.50;;
53273;SDS011;39163;52.696;6.758;2024-03-23T15:19:14;7.70;;;0.43;;
53273;SDS011;39163;52.696;6.758;2024-03-23T15:21:40;4.78;;;0.50;;
53273;SDS011;39163;52.696;6.758;2024-03-23T15:24:08;6.25;;;0.50;;
53273;SDS011;39163;52.696;6.758;2024-03-23T15:26:37;6.95;;;0.68;;
53273;SDS011;39163;52.696;6.758;2024-03-23T15:29:04;10.63;;;1.05;;
53273;SDS011;39163;52.696;6.758;2024-03-23T15:31:36;8.45;;;0.77;;
53273;SDS011;39163;52.696;6.758;2024-03-23T15:34:04;11.48;;;1.13;;
53273;SDS011;39163;52.696;6.758;2024-03-23T15:36:30;5.25;;;0.60;;